createdAt,value
2019-05-21T00:01:44.703Z,9.80
2019-05-21T00:04:27.803Z,8.87
2019-05-21T00:06:50.076Z,9.00
2019-05-21T00:09:21.938Z,9.27
2019-05-21T00:11:54.279Z,10.03
2019-05-21T00:14:26.107Z,10.60
2019-05-21T00:16:58.423Z,10.50
2019-05-21T00:19:30.603Z,10.63
2019-05-21T00:22:13.389Z,11.40
2019-05-21T00:24:47.850Z,12.93
2019-05-21T00:27:19.743Z,13.13
2019-05-21T00:30:27.022Z,13.63
2019-05-21T00:33:35.097Z,14.73
2019-05-21T00:36:44.287Z,14.20
2019-05-21T00:39:51.589Z,15.50
2019-05-21T00:42:32.823Z,15.17
2019-05-21T00:45:06.635Z,14.97
2019-05-21T00:47:39.342Z,15.57
2019-05-21T00:50:11.435Z,15.07
2019-05-21T00:52:43.834Z,15.73
2019-05-21T00:55:16.021Z,15.43
2019-05-21T00:57:47.947Z,16.17
2019-05-21T01:00:19.855Z,16.23
2019-05-21T01:02:52.552Z,15.43
2019-05-21T01:05:25.287Z,14.27
2019-05-21T01:07:57.599Z,13.87
2019-05-21T01:10:31.728Z,15.00
2019-05-21T01:13:03.718Z,13.33
2019-05-21T01:15:35.488Z,13.57
2019-05-21T01:18:07.599Z,14.50
2019-05-21T01:20:40.177Z,13.00
2019-05-21T01:23:12.081Z,12.90
2019-05-21T01:25:44.498Z,12.03
2019-05-21T01:28:17.213Z,10.83
2019-05-21T01:30:50.811Z,10.77
2019-05-21T01:33:22.953Z,10.27
2019-05-21T01:35:55.298Z,9.40
2019-05-21T01:38:27.294Z,9.23
2019-05-21T01:41:00.497Z,9.03
2019-05-21T01:43:32.805Z,9.87
2019-05-21T01:46:05.067Z,9.97
2019-05-21T01:48:36.922Z,9.80
2019-05-21T01:51:09.136Z,9.73
2019-05-21T01:53:42.205Z,9.13
2019-05-21T01:56:15.515Z,8.50
2019-05-21T01:58:47.751Z,8.87
2019-05-21T02:01:19.997Z,8.80
2019-05-21T02:03:51.997Z,9.27
2019-05-21T02:06:25.136Z,8.97
2019-05-21T02:08:57.695Z,9.97
2019-05-21T02:11:30.132Z,9.83
2019-05-21T02:14:02.610Z,9.13
2019-05-21T02:16:35.607Z,9.07
2019-05-21T02:19:07.710Z,8.87
2019-05-21T02:21:39.691Z,8.80
2019-05-21T02:24:11.925Z,9.27
2019-05-21T02:26:44.108Z,9.93
2019-05-21T02:29:17.508Z,9.50
2019-05-21T02:31:49.902Z,10.50
2019-05-21T02:34:23.927Z,10.27
2019-05-21T02:36:56.022Z,10.30
2019-05-21T02:39:28.512Z,10.67
2019-05-21T02:42:01.134Z,11.33
2019-05-21T02:44:34.654Z,11.90
2019-05-21T02:47:07.553Z,11.77
2019-05-21T02:49:40.559Z,10.87
2019-05-21T02:52:13.846Z,11.97
2019-05-21T02:54:46.414Z,10.80
2019-05-21T02:57:18.504Z,11.40
2019-05-21T02:59:52.493Z,10.73
2019-05-21T03:02:31.463Z,11.77
2019-05-21T03:05:08.984Z,11.93
2019-05-21T03:07:41.765Z,10.80
2019-05-21T03:10:16.103Z,11.07
2019-05-21T03:12:49.409Z,11.13
2019-05-21T03:15:27.117Z,11.57
2019-05-21T03:18:01.154Z,11.60
2019-05-21T03:20:33.787Z,11.23
2019-05-21T03:23:07.035Z,11.80
2019-05-21T03:25:39.143Z,11.63
2019-05-21T03:28:16.449Z,10.53
2019-05-21T03:30:48.693Z,10.53
2019-05-21T03:33:20.864Z,10.33
2019-05-21T03:35:54.538Z,11.30
2019-05-21T03:38:26.727Z,10.83
2019-05-21T03:40:59.008Z,10.80
2019-05-21T03:43:31.100Z,10.73
2019-05-21T03:46:03.306Z,10.80
2019-05-21T03:48:35.777Z,11.07
2019-05-21T03:51:08.867Z,10.03
2019-05-21T03:53:41.568Z,10.57
2019-05-21T03:56:14.402Z,10.90
2019-05-21T03:58:46.600Z,10.03
2019-05-21T04:01:19.252Z,10.27
2019-05-21T04:03:52.212Z,9.70
2019-05-21T04:06:28.282Z,9.57
2019-05-21T04:08:58.696Z,9.17
2019-05-21T04:11:31.653Z,8.70
2019-05-21T04:14:03.988Z,9.40
2019-05-21T04:17:07.196Z,9.33
2019-05-21T04:19:42.089Z,8.80
2019-05-21T04:22:19.439Z,8.67
2019-05-21T04:24:51.994Z,8.87
2019-05-21T04:27:24.685Z,8.93
2019-05-21T04:29:56.806Z,8.43
2019-05-21T04:32:30.011Z,8.23
2019-05-21T04:35:02.579Z,7.60
2019-05-21T04:37:34.888Z,7.90
2019-05-21T04:40:07.379Z,8.33
2019-05-21T04:42:40.249Z,7.23
2019-05-21T04:45:12.860Z,7.57
2019-05-21T04:47:49.790Z,7.17
2019-05-21T04:50:23.511Z,7.20
2019-05-21T04:52:55.972Z,8.20
2019-05-21T04:55:28.016Z,7.73
2019-05-21T04:57:59.996Z,7.40
2019-05-21T05:00:32.921Z,6.67
2019-05-21T05:03:06.105Z,7.07
2019-05-21T05:05:39.908Z,7.10
2019-05-21T05:08:12.555Z,6.23
2019-05-21T05:10:44.514Z,7.20
2019-05-21T05:13:18.259Z,7.03
2019-05-21T05:15:58.183Z,6.60
2019-05-21T05:18:30.473Z,6.00
2019-05-21T05:21:03.990Z,5.80
2019-05-21T05:23:36.246Z,5.97
2019-05-21T05:26:10.037Z,4.90
2019-05-21T05:28:48.451Z,4.23
2019-05-21T05:31:26.400Z,3.90
2019-05-21T05:33:59.256Z,3.97
2019-05-21T05:36:31.947Z,3.67
2019-05-21T05:42:21.339Z,3.40
2019-05-21T05:44:53.552Z,3.87
2019-05-21T05:47:26.095Z,4.07
2019-05-21T05:50:00.626Z,3.33
2019-05-21T05:52:34.505Z,3.37
2019-05-21T05:55:06.659Z,3.20
2019-05-21T05:57:39.186Z,3.10
2019-05-21T06:00:14.968Z,3.27
2019-05-21T06:02:47.432Z,3.30
2019-05-21T06:05:20.263Z,2.53
2019-05-21T06:07:59.973Z,3.00
2019-05-21T06:10:26.507Z,3.10
2019-05-21T06:13:00.175Z,2.80
2019-05-21T06:15:32.364Z,2.13
2019-05-21T06:18:04.640Z,2.70
2019-05-21T06:20:36.784Z,2.70
2019-05-21T06:23:09.123Z,3.07
2019-05-21T06:25:42.337Z,2.83
2019-05-21T06:28:15.416Z,3.00
2019-05-21T06:30:47.517Z,3.13
2019-05-21T06:33:20.166Z,3.10
2019-05-21T06:35:52.595Z,3.30
2019-05-21T06:38:25.081Z,2.90
2019-05-21T06:40:57.239Z,3.60
2019-05-21T06:43:30.884Z,3.17
2019-05-21T06:46:03.488Z,3.23
2019-05-21T06:48:36.860Z,2.80
2019-05-21T06:51:09.250Z,2.70
2019-05-21T06:53:41.221Z,3.00
2019-05-21T06:56:13.663Z,2.47
2019-05-21T06:58:46.042Z,2.57
2019-05-21T07:01:17.919Z,2.20
2019-05-21T07:03:49.817Z,2.23
2019-05-21T07:06:33.037Z,2.13
2019-05-21T07:09:06.223Z,2.27
2019-05-21T07:11:39.447Z,2.40
2019-05-21T07:14:11.354Z,1.90
2019-05-21T07:16:43.469Z,2.30
2019-05-21T07:19:15.938Z,2.00
2019-05-21T07:21:48.483Z,1.70
2019-05-21T07:24:20.968Z,1.80
2019-05-21T07:26:55.100Z,1.80
2019-05-21T07:29:27.637Z,1.80
2019-05-21T07:32:01.394Z,2.00
2019-05-21T07:34:33.412Z,1.90
2019-05-21T07:37:06.282Z,1.50
2019-05-21T07:39:39.013Z,2.00
2019-05-21T07:42:11.544Z,1.60
2019-05-21T07:44:43.822Z,2.33
2019-05-21T07:47:16.347Z,1.77
2019-05-21T07:49:48.313Z,1.93
2019-05-21T07:52:20.479Z,1.70
2019-05-21T07:54:53.529Z,1.93
2019-05-21T07:57:26.101Z,1.60
2019-05-21T07:59:59.339Z,1.80
2019-05-21T08:02:31.621Z,11.13
2019-05-21T08:05:05.702Z,1.83
2019-05-21T08:07:39.313Z,1.43
2019-05-21T08:10:12.047Z,1.50
2019-05-21T08:12:44.241Z,1.50
2019-05-21T08:15:16.962Z,1.40
2019-05-21T08:17:49.583Z,1.30
2019-05-21T08:20:24.816Z,1.43
2019-05-21T08:22:57.429Z,1.67
2019-05-21T08:25:31.827Z,1.80
2019-05-21T08:28:04.296Z,1.40
2019-05-21T08:30:36.449Z,1.47
2019-05-21T08:33:09.969Z,2.20
2019-05-21T08:35:41.954Z,2.43
2019-05-21T08:38:14.528Z,1.70
2019-05-21T08:40:47.540Z,1.90
2019-05-21T08:43:22.077Z,1.97
2019-05-21T08:45:53.877Z,1.80
2019-05-21T08:48:28.383Z,2.10
2019-05-21T08:51:00.855Z,2.13
2019-05-21T08:53:37.158Z,2.20
2019-05-21T08:56:11.854Z,2.40
2019-05-21T08:58:45.257Z,2.30
2019-05-21T09:01:17.862Z,2.10
2019-05-21T09:03:50.298Z,2.23
2019-05-21T09:06:23.722Z,2.13
2019-05-21T09:08:57.277Z,2.47
2019-05-21T09:11:30.929Z,2.10
2019-05-21T09:14:03.063Z,2.50
2019-05-21T09:16:35.269Z,2.10
2019-05-21T09:19:08.329Z,2.60
2019-05-21T09:21:40.868Z,2.50
2019-05-21T09:24:13.094Z,3.17
2019-05-21T09:26:45.173Z,3.23
2019-05-21T09:29:18.338Z,2.33
2019-05-21T09:31:51.114Z,2.30
2019-05-21T09:34:23.563Z,2.30
2019-05-21T09:36:55.638Z,2.57
2019-05-21T09:39:28.130Z,2.20
2019-05-21T09:42:00.113Z,2.30
2019-05-21T09:44:32.651Z,1.70
2019-05-21T09:47:04.794Z,1.63
2019-05-21T09:49:37.263Z,1.40
2019-05-21T09:52:09.404Z,1.50
2019-05-21T09:54:42.199Z,1.17
2019-05-21T09:57:17.620Z,1.10
2019-05-21T10:00:01.001Z,1.30
2019-05-21T10:02:36.274Z,1.10
2019-05-21T10:05:10.109Z,1.43
2019-05-21T10:07:42.097Z,1.30
2019-05-21T10:10:15.399Z,1.57
2019-05-21T10:12:47.540Z,1.47
2019-05-21T10:15:21.096Z,1.70
2019-05-21T10:17:53.199Z,1.60
2019-05-21T10:20:26.439Z,1.60
2019-05-21T10:23:00.837Z,1.80
2019-05-21T10:25:32.926Z,1.73
2019-05-21T10:28:05.636Z,1.80
2019-05-21T10:30:38.234Z,1.83
2019-05-21T10:33:10.377Z,1.70
2019-05-21T10:35:43.075Z,1.90
2019-05-21T10:38:14.970Z,2.10
2019-05-21T10:40:46.919Z,1.90
2019-05-21T10:43:19.319Z,2.10
2019-05-21T10:45:51.620Z,2.40
2019-05-21T10:48:26.456Z,2.20
2019-05-21T10:50:59.664Z,2.50
2019-05-21T10:53:31.698Z,2.20
2019-05-21T10:56:03.604Z,2.23
2019-05-21T10:58:36.604Z,2.40
2019-05-21T11:01:19.145Z,2.37
2019-05-21T11:04:09.331Z,2.17
2019-05-21T11:06:42.679Z,2.30
2019-05-21T11:09:18.968Z,2.30
2019-05-21T11:11:51.221Z,1.60
2019-05-21T11:14:23.284Z,1.80
2019-05-21T11:16:56.652Z,1.30
2019-05-21T11:19:30.498Z,1.20
2019-05-21T11:22:03.577Z,1.37
2019-05-21T11:24:36.476Z,1.30
2019-05-21T11:27:09.359Z,1.20
2019-05-21T11:29:41.389Z,1.37
2019-05-21T11:32:14.751Z,1.87
2019-05-21T11:34:50.020Z,1.30
2019-05-21T11:37:21.492Z,1.63
2019-05-21T11:39:55.031Z,1.50
2019-05-21T11:42:29.331Z,1.90
2019-05-21T11:45:02.607Z,2.00
2019-05-21T11:47:34.752Z,2.00
2019-05-21T11:50:08.064Z,1.97
2019-05-21T11:52:40.614Z,2.10
2019-05-21T11:55:13.257Z,2.03
2019-05-21T11:57:45.303Z,2.03
2019-05-21T12:00:21.717Z,2.17
2019-05-21T12:02:54.014Z,2.40
2019-05-21T12:05:26.268Z,2.20
2019-05-21T12:07:58.356Z,2.33
2019-05-21T12:10:31.631Z,2.90
2019-05-21T12:13:04.481Z,3.27
2019-05-21T12:15:38.101Z,2.83
2019-05-21T12:18:10.680Z,2.80
2019-05-21T12:20:43.076Z,2.50
2019-05-21T12:23:16.677Z,2.77
2019-05-21T12:25:51.199Z,2.43
2019-05-21T12:28:23.554Z,2.70
2019-05-21T12:30:56.556Z,2.57
2019-05-21T12:33:34.703Z,2.50
2019-05-21T12:36:05.727Z,2.20
2019-05-21T12:38:39.458Z,2.43
2019-05-21T12:41:13.719Z,2.57
2019-05-21T12:43:45.675Z,4.17
2019-05-21T12:46:17.909Z,3.97
2019-05-21T12:48:50.197Z,3.83
2019-05-21T12:51:22.236Z,4.90
2019-05-21T12:53:55.250Z,5.00
2019-05-21T12:56:30.021Z,5.20
2019-05-21T12:59:02.675Z,5.10
2019-05-21T13:01:35.161Z,5.10
2019-05-21T13:04:08.917Z,5.47
2019-05-21T13:06:42.242Z,6.27
2019-05-21T13:09:31.285Z,6.57
2019-05-21T13:11:50.217Z,6.70
2019-05-21T13:14:22.395Z,6.87
2019-05-21T13:16:55.458Z,7.33
2019-05-21T13:19:27.796Z,7.60
2019-05-21T13:22:00.424Z,7.37
2019-05-21T13:24:32.540Z,7.83
2019-05-21T13:27:05.638Z,7.97
2019-05-21T13:29:38.182Z,8.27
2019-05-21T13:32:10.646Z,8.43
2019-05-21T13:34:43.224Z,8.70
2019-05-21T13:37:17.495Z,9.70
2019-05-21T13:39:51.401Z,10.50
2019-05-21T13:42:24.036Z,11.10
2019-05-21T13:44:56.322Z,12.87
2019-05-21T13:47:28.537Z,12.80
2019-05-21T13:50:00.614Z,13.20
2019-05-21T13:52:33.927Z,14.40
2019-05-21T13:55:06.323Z,15.43
2019-05-21T13:57:39.816Z,15.47
2019-05-21T14:00:16.120Z,17.30
2019-05-21T14:02:48.508Z,15.37
2019-05-21T14:05:20.797Z,15.70
2019-05-21T14:07:53.318Z,14.07
2019-05-21T14:10:26.021Z,15.23
2019-05-21T14:12:58.417Z,15.37
2019-05-21T14:15:30.506Z,11.90
2019-05-21T14:18:02.529Z,12.80
2019-05-21T14:20:35.207Z,10.63
2019-05-21T14:23:09.010Z,10.63
2019-05-21T14:25:41.638Z,10.13
2019-05-21T14:28:14.106Z,9.27
2019-05-21T14:30:47.039Z,9.83
2019-05-21T14:33:19.273Z,10.27
2019-05-21T14:35:52.050Z,9.37
2019-05-21T14:38:25.417Z,9.73
2019-05-21T14:40:59.291Z,9.90
2019-05-21T14:43:31.447Z,9.20
2019-05-21T14:46:05.163Z,9.50
2019-05-21T14:48:37.467Z,9.80
2019-05-21T14:51:13.530Z,8.90
2019-05-21T14:53:46.874Z,8.63
2019-05-21T14:56:19.948Z,7.77
2019-05-21T14:58:52.470Z,7.30
2019-05-21T15:01:24.548Z,6.80
2019-05-21T15:03:57.073Z,6.47
2019-05-21T15:06:29.522Z,6.77
2019-05-21T15:09:07.273Z,5.60
2019-05-21T15:11:41.838Z,6.07
2019-05-21T15:14:17.507Z,8.40
2019-05-21T15:16:50.434Z,6.87
2019-05-21T15:19:22.936Z,7.47
2019-05-21T15:21:58.611Z,7.47
2019-05-21T15:24:33.484Z,7.70
2019-05-21T15:27:05.583Z,8.20
2019-05-21T15:29:39.929Z,9.83
2019-05-21T15:32:12.109Z,9.57
2019-05-21T15:34:44.403Z,10.50
2019-05-21T15:37:21.510Z,11.30
2019-05-21T15:39:56.116Z,11.57
2019-05-21T15:42:28.455Z,11.13
2019-05-21T15:45:01.782Z,12.83
2019-05-21T15:47:37.152Z,12.23
2019-05-21T15:50:10.739Z,13.83
2019-05-21T15:52:44.952Z,26.93
2019-05-21T15:55:17.439Z,24.70
2019-05-21T15:57:50.027Z,16.30
2019-05-21T16:00:23.027Z,15.60
2019-05-21T16:02:55.972Z,14.67
2019-05-21T16:05:28.098Z,14.67
2019-05-21T16:08:03.676Z,15.97
2019-05-21T16:10:36.216Z,16.00
2019-05-21T16:13:08.679Z,16.20
2019-05-21T16:15:41.160Z,16.93
2019-05-21T16:18:13.147Z,17.40
2019-05-21T16:20:45.288Z,17.43
2019-05-21T16:23:20.069Z,18.50
2019-05-21T16:25:52.456Z,17.37
2019-05-21T16:28:24.805Z,18.37
2019-05-21T16:30:57.452Z,18.70
2019-05-21T16:33:30.487Z,18.70
2019-05-21T16:36:03.049Z,20.03
2019-05-21T16:38:35.331Z,19.73
2019-05-21T16:41:10.171Z,20.93
2019-05-21T16:43:43.130Z,20.27
2019-05-21T16:46:16.876Z,20.07
2019-05-21T16:48:49.661Z,19.53
2019-05-21T16:51:22.204Z,20.37
2019-05-21T16:53:54.554Z,20.83
2019-05-21T16:56:27.114Z,20.30
2019-05-21T16:59:00.748Z,20.33
2019-05-21T17:01:33.567Z,21.90
2019-05-21T17:04:06.454Z,21.67
2019-05-21T17:06:39.615Z,18.70
2019-05-21T17:09:13.909Z,17.73
2019-05-21T17:11:59.053Z,17.60
2019-05-21T17:14:20.205Z,16.97
2019-05-21T17:16:54.782Z,17.07
2019-05-21T17:19:27.095Z,18.07
2019-05-21T17:21:59.792Z,18.37
2019-05-21T17:24:32.930Z,18.33
2019-05-21T17:27:05.785Z,18.43
2019-05-21T17:29:39.307Z,18.07
2019-05-21T17:32:11.898Z,17.53
2019-05-21T17:34:44.431Z,19.17
2019-05-21T17:37:17.229Z,18.77
2019-05-21T17:39:50.132Z,19.20
2019-05-21T17:42:23.525Z,18.20
2019-05-21T17:44:57.872Z,17.07
2019-05-21T17:47:31.880Z,16.90
2019-05-21T17:50:04.808Z,17.33
2019-05-21T17:52:39.212Z,16.40
2019-05-21T17:55:11.283Z,17.10
2019-05-21T17:57:44.402Z,17.00
2019-05-21T18:00:19.916Z,16.43
2019-05-21T18:02:53.924Z,17.07
2019-05-21T18:05:26.695Z,17.10
2019-05-21T18:08:00.755Z,18.93
2019-05-21T18:10:32.748Z,18.27
2019-05-21T18:13:06.148Z,17.80
2019-05-21T18:15:40.106Z,17.73
2019-05-21T18:18:13.181Z,17.07
2019-05-21T18:20:46.198Z,16.80
2019-05-21T18:23:19.448Z,16.33
2019-05-21T18:25:52.441Z,16.47
2019-05-21T18:28:25.264Z,16.23
2019-05-21T18:30:58.117Z,15.70
2019-05-21T18:33:30.199Z,16.37
2019-05-21T18:36:04.584Z,14.87
2019-05-21T18:38:36.923Z,18.17
2019-05-21T18:41:10.094Z,14.67
2019-05-21T18:43:43.196Z,15.87
2019-05-21T18:46:16.463Z,15.97
2019-05-21T18:48:49.981Z,16.10
2019-05-21T18:51:22.982Z,16.03
2019-05-21T18:53:55.452Z,15.70
2019-05-21T18:56:28.291Z,15.67
2019-05-21T18:59:00.713Z,16.30
2019-05-21T19:01:33.161Z,15.97
2019-05-21T19:04:06.607Z,16.33
2019-05-21T19:06:40.712Z,15.80
2019-05-21T19:09:13.984Z,15.80
2019-05-21T19:11:45.855Z,16.20
2019-05-21T19:14:18.695Z,15.23
2019-05-21T19:16:51.824Z,15.83
2019-05-21T19:19:24.885Z,15.90
2019-05-21T19:21:57.462Z,16.27
2019-05-21T19:24:31.766Z,16.00
2019-05-21T19:27:04.125Z,14.17
2019-05-21T19:29:36.167Z,15.80
2019-05-21T19:32:10.108Z,14.97
2019-05-21T19:34:42.194Z,14.53
2019-05-21T19:37:15.433Z,14.97
2019-05-21T19:39:48.864Z,14.80
2019-05-21T19:42:22.103Z,14.83
2019-05-21T19:44:55.435Z,14.80
2019-05-21T19:47:27.202Z,14.03
2019-05-21T19:49:59.043Z,14.87
2019-05-21T19:52:31.516Z,15.37
2019-05-21T19:55:03.956Z,13.60
2019-05-21T19:57:36.923Z,15.20
2019-05-21T20:00:10.703Z,14.57
2019-05-21T20:02:48.258Z,14.33
2019-05-21T20:05:18.742Z,13.83
2019-05-21T20:07:50.606Z,13.70
2019-05-21T20:10:23.503Z,14.73
2019-05-21T20:12:55.748Z,14.10
2019-05-21T20:15:27.507Z,13.20
2019-05-21T20:18:07.504Z,15.30
2019-05-21T20:20:34.302Z,14.40
2019-05-21T20:23:08.638Z,14.40
2019-05-21T20:25:55.251Z,14.33
2019-05-21T20:28:15.963Z,13.63
2019-05-21T20:30:48.901Z,12.83
2019-05-21T20:33:24.346Z,13.57
2019-05-21T20:35:57.871Z,13.43
2019-05-21T20:38:31.386Z,13.80
2019-05-21T20:41:04.989Z,14.33
2019-05-21T20:43:37.405Z,13.13
2019-05-21T20:46:10.152Z,14.07
2019-05-21T20:48:42.822Z,12.27
2019-05-21T20:51:16.322Z,12.80
2019-05-21T20:53:49.165Z,12.60
2019-05-21T20:56:22.974Z,12.77
2019-05-21T20:58:56.287Z,11.83
2019-05-21T21:01:29.265Z,11.50
2019-05-21T21:04:03.991Z,12.17
2019-05-21T21:06:37.445Z,12.20
2019-05-21T21:09:13.416Z,11.40
2019-05-21T21:11:46.407Z,12.23
2019-05-21T21:14:21.250Z,12.43
2019-05-21T21:16:55.407Z,11.60
2019-05-21T21:19:31.904Z,12.70
2019-05-21T21:22:05.131Z,12.67
2019-05-21T21:24:36.969Z,12.20
2019-05-21T21:27:14.151Z,12.23
2019-05-21T21:29:47.637Z,14.13
2019-05-21T21:32:20.092Z,13.63
2019-05-21T21:34:52.341Z,13.67
2019-05-21T21:37:25.435Z,13.93
2019-05-21T21:39:59.615Z,13.27
2019-05-21T21:42:32.252Z,13.63
2019-05-21T21:45:04.246Z,13.80
2019-05-21T21:47:38.679Z,13.73
2019-05-21T21:50:13.431Z,13.93
2019-05-21T21:52:47.162Z,13.60
2019-05-21T21:55:20.813Z,12.83
2019-05-21T21:57:54.242Z,13.50
2019-05-21T22:01:20.094Z,13.20
2019-05-21T22:03:54.084Z,12.80
2019-05-21T22:06:28.775Z,13.37
2019-05-21T22:09:03.560Z,13.73
2019-05-21T22:11:37.208Z,13.73
2019-05-21T22:14:10.422Z,13.67
2019-05-21T22:16:44.503Z,13.93
2019-05-21T22:19:17.826Z,14.43
2019-05-21T22:21:51.583Z,15.50
2019-05-21T22:24:24.683Z,15.30
2019-05-21T22:26:58.865Z,14.93
2019-05-21T22:29:33.002Z,15.63
2019-05-21T22:32:04.924Z,15.17
2019-05-21T22:34:37.610Z,15.90
2019-05-21T22:37:15.387Z,16.77
2019-05-21T22:39:49.285Z,16.67
2019-05-21T22:42:22.857Z,16.00
2019-05-21T22:45:07.183Z,16.27
2019-05-21T22:47:32.212Z,16.70
2019-05-21T22:50:04.275Z,17.70
2019-05-21T22:52:36.630Z,17.97
2019-05-21T22:55:09.611Z,17.50
2019-05-21T22:57:42.143Z,18.70
2019-05-21T23:00:16.468Z,18.73
2019-05-21T23:02:50.591Z,18.27
2019-05-21T23:05:23.882Z,18.97
2019-05-21T23:07:56.126Z,19.80
2019-05-21T23:10:28.416Z,19.90
2019-05-21T23:13:01.799Z,19.90
2019-05-21T23:15:33.746Z,20.57
2019-05-21T23:18:23.811Z,20.63
2019-05-21T23:21:05.005Z,22.70
2019-05-21T23:23:37.618Z,22.53
2019-05-21T23:26:11.374Z,23.07
2019-05-21T23:28:46.749Z,25.33
2019-05-21T23:31:20.284Z,25.40
2019-05-21T23:33:53.967Z,24.83
2019-05-21T23:36:27.292Z,25.93
2019-05-21T23:39:00.738Z,26.83
2019-05-21T23:41:37.061Z,26.97
2019-05-21T23:44:09.923Z,27.87
2019-05-21T23:46:44.429Z,28.57
2019-05-21T23:49:16.590Z,27.53
2019-05-21T23:51:48.474Z,26.40
2019-05-21T23:54:21.843Z,27.27
2019-05-21T23:56:54.340Z,29.83
2019-05-21T23:59:29.376Z,29.73
